sensor_id;sensor_type;location;lat;lon;timestamp;temperature;humidity
20141;DHT22;10231;47.702;9.826;2022-12-29T00:02:11;7.40;99.90
20141;DHT22;10231;47.702;9.826;2022-12-29T00:04:36;7.40;99.90
20141;DHT22;10231;47.702;9.826;2022-12-29T00:07:02;7.50;99.90
20141;DHT22;10231;47.702;9.826;2022-12-29T00:09:30;7.40;99.90
20141;DHT22;10231;47.702;9.826;2022-12-29T00:11:56;7.30;99.90
20141;DHT22;10231;47.702;9.826;2022-12-29T00:14:21;7.20;99.90
20141;DHT22;10231;47.702;9.826;2022-12-29T00:17:06;7.20;99.90
20141;DHT22;10231;47.702;9.826;2022-12-29T00:19:31;7.20;99.90
20141;DHT22;10231;47.702;9.826;2022-12-29T00:22:15;7.20;99.90
20141;DHT22;10231;47.702;9.826;2022-12-29T00:25:00;7.20;99.90
20141;DHT22;10231;47.702;9.826;2022-12-29T00:27:34;7.20;99.90
20141;DHT22;10231;47.702;9.826;2022-12-29T00:30:20;7.30;99.90
20141;DHT22;10231;47.702;9.826;2022-12-29T00:33:10;7.30;99.90
20141;DHT22;10231;47.702;9.826;2022-12-29T00:36:18;7.20;99.90
20141;DHT22;10231;47.702;9.826;2022-12-29T00:38:46;7.20;99.90
20141;DHT22;10231;47.702;9.826;2022-12-29T00:41:31;7.20;99.90
20141;DHT22;10231;47.702;9.826;2022-12-29T00:44:15;7.10;99.90
20141;DHT22;10231;47.702;9.826;2022-12-29T00:46:42;7.20;99.90
20141;DHT22;10231;47.702;9.826;2022-12-29T00:49:11;7.30;99.90
20141;DHT22;10231;47.702;9.826;2022-12-29T00:51:57;7.30;99.90
20141;DHT22;10231;47.702;9.826;2022-12-29T00:54:23;7.30;99.90
20141;DHT22;10231;47.702;9.826;2022-12-29T00:56:50;7.30;99.90
20141;DHT22;10231;47.702;9.826;2022-12-29T00:59:16;7.40;99.90
20141;DHT22;10231;47.702;9.826;2022-12-29T01:01:42;7.50;99.90
20141;DHT22;10231;47.702;9.826;2022-12-29T01:04:08;7.50;99.90
20141;DHT22;10231;47.702;9.826;2022-12-29T01:06:34;7.50;99.90
20141;DHT22;10231;47.702;9.826;2022-12-29T01:09:00;7.50;99.90
20141;DHT22;10231;47.702;9.826;2022-12-29T01:11:45;7.50;99.90
20141;DHT22;10231;47.702;9.826;2022-12-29T01:14:10;7.60;99.90
20141;DHT22;10231;47.702;9.826;2022-12-29T01:16:36;7.60;99.90
20141;DHT22;10231;47.702;9.826;2022-12-29T01:19:02;7.60;99.90
20141;DHT22;10231;47.702;9.826;2022-12-29T01:21:28;7.60;99.90
20141;DHT22;10231;47.702;9.826;2022-12-29T01:23:53;7.60;99.90
20141;DHT22;10231;47.702;9.826;2022-12-29T01:26:19;7.60;99.90
20141;DHT22;10231;47.702;9.826;2022-12-29T01:28:45;7.60;99.90
20141;DHT22;10231;47.702;9.826;2022-12-29T01:31:12;7.70;99.90
20141;DHT22;10231;47.702;9.826;2022-12-29T01:33:38;7.70;99.90
20141;DHT22;10231;47.702;9.826;2022-12-29T01:36:05;7.70;99.90
20141;DHT22;10231;47.702;9.826;2022-12-29T01:38:32;7.70;99.60
20141;DHT22;10231;47.702;9.826;2022-12-29T01:40:58;7.80;99.40
20141;DHT22;10231;47.702;9.826;2022-12-29T01:48:42;7.80;99.30
20141;DHT22;10231;47.702;9.826;2022-12-29T01:51:08;7.90;98.90
20141;DHT22;10231;47.702;9.826;2022-12-29T01:53:35;7.90;98.60
20141;DHT22;10231;47.702;9.826;2022-12-29T01:56:04;8.00;98.40
20141;DHT22;10231;47.702;9.826;2022-12-29T01:58:35;8.00;98.50
20141;DHT22;10231;47.702;9.826;2022-12-29T02:01:04;8.00;98.30
20141;DHT22;10231;47.702;9.826;2022-12-29T02:03:30;8.00;98.30
20141;DHT22;10231;47.702;9.826;2022-12-29T02:06:02;8.00;98.40
20141;DHT22;10231;47.702;9.826;2022-12-29T02:08:30;8.00;98.30
20141;DHT22;10231;47.702;9.826;2022-12-29T02:10:58;8.00;98.10
20141;DHT22;10231;47.702;9.826;2022-12-29T02:13:25;8.10;98.20
20141;DHT22;10231;47.702;9.826;2022-12-29T02:22:00;8.10;97.90
20141;DHT22;10231;47.702;9.826;2022-12-29T02:24:44;8.10;98.10
20141;DHT22;10231;47.702;9.826;2022-12-29T02:38:38;8.00;98.20
20141;DHT22;10231;47.702;9.826;2022-12-29T02:44:35;7.90;98.20
20141;DHT22;10231;47.702;9.826;2022-12-29T02:47:22;8.00;97.80
20141;DHT22;10231;47.702;9.826;2022-12-29T02:49:57;8.00;97.80
20141;DHT22;10231;47.702;9.826;2022-12-29T02:52:35;8.00;98.10
20141;DHT22;10231;47.702;9.826;2022-12-29T02:55:03;8.00;98.10
20141;DHT22;10231;47.702;9.826;2022-12-29T02:57:31;7.90;98.00
20141;DHT22;10231;47.702;9.826;2022-12-29T03:00:10;7.90;98.00
20141;DHT22;10231;47.702;9.826;2022-12-29T03:10:53;8.00;97.40
20141;DHT22;10231;47.702;9.826;2022-12-29T03:13:41;8.00;97.30
20141;DHT22;10231;47.702;9.826;2022-12-29T03:16:50;8.10;97.20
20141;DHT22;10231;47.702;9.826;2022-12-29T03:24:41;8.10;97.20
20141;DHT22;10231;47.702;9.826;2022-12-29T03:27:12;8.00;97.70
20141;DHT22;10231;47.702;9.826;2022-12-29T03:29:46;7.90;97.80
20141;DHT22;10231;47.702;9.826;2022-12-29T03:32:19;7.90;97.70
20141;DHT22;10231;47.702;9.826;2022-12-29T03:34:46;7.90;98.10
20141;DHT22;10231;47.702;9.826;2022-12-29T03:37:15;7.80;98.00
20141;DHT22;10231;47.702;9.826;2022-12-29T03:39:42;7.80;98.30
20141;DHT22;10231;47.702;9.826;2022-12-29T03:42:21;7.80;98.40
20141;DHT22;10231;47.702;9.826;2022-12-29T03:44:53;7.70;98.70
20141;DHT22;10231;47.702;9.826;2022-12-29T03:47:19;7.60;99.20
20141;DHT22;10231;47.702;9.826;2022-12-29T03:49:45;7.50;99.50
20141;DHT22;10231;47.702;9.826;2022-12-29T03:52:11;7.40;99.60
20141;DHT22;10231;47.702;9.826;2022-12-29T03:54:36;7.40;99.70
20141;DHT22;10231;47.702;9.826;2022-12-29T03:57:02;7.30;99.90
20141;DHT22;10231;47.702;9.826;2022-12-29T03:59:27;7.40;99.40
20141;DHT22;10231;47.702;9.826;2022-12-29T04:01:53;7.40;99.00
20141;DHT22;10231;47.702;9.826;2022-12-29T04:04:18;7.50;99.10
20141;DHT22;10231;47.702;9.826;2022-12-29T04:06:44;7.50;99.30
20141;DHT22;10231;47.702;9.826;2022-12-29T04:09:10;7.50;99.30
20141;DHT22;10231;47.702;9.826;2022-12-29T04:11:36;7.50;99.00
20141;DHT22;10231;47.702;9.826;2022-12-29T04:14:01;7.50;99.30
20141;DHT22;10231;47.702;9.826;2022-12-29T04:16:27;7.40;99.40
20141;DHT22;10231;47.702;9.826;2022-12-29T04:18:53;7.40;99.20
20141;DHT22;10231;47.702;9.826;2022-12-29T04:21:18;7.40;99.30
20141;DHT22;10231;47.702;9.826;2022-12-29T04:23:44;7.30;99.40
20141;DHT22;10231;47.702;9.826;2022-12-29T04:26:10;7.30;99.40
20141;DHT22;10231;47.702;9.826;2022-12-29T04:28:36;7.20;99.60
20141;DHT22;10231;47.702;9.826;2022-12-29T04:31:03;7.20;99.90
20141;DHT22;10231;47.702;9.826;2022-12-29T04:33:29;7.20;99.90
20141;DHT22;10231;47.702;9.826;2022-12-29T04:35:54;7.10;99.90
20141;DHT22;10231;47.702;9.826;2022-12-29T04:38:21;7.10;99.90
20141;DHT22;10231;47.702;9.826;2022-12-29T04:40:48;7.00;99.90
20141;DHT22;10231;47.702;9.826;2022-12-29T04:43:14;7.00;99.90
20141;DHT22;10231;47.702;9.826;2022-12-29T04:45:49;7.10;99.90
20141;DHT22;10231;47.702;9.826;2022-12-29T04:48:15;7.00;99.90
20141;DHT22;10231;47.702;9.826;2022-12-29T04:50:41;7.00;99.90
20141;DHT22;10231;47.702;9.826;2022-12-29T04:53:07;7.10;99.90
20141;DHT22;10231;47.702;9.826;2022-12-29T04:55:33;7.00;99.90
20141;DHT22;10231;47.702;9.826;2022-12-29T04:57:59;7.00;99.90
20141;DHT22;10231;47.702;9.826;2022-12-29T05:00:24;6.90;99.90
20141;DHT22;10231;47.702;9.826;2022-12-29T05:02:50;7.00;99.90
20141;DHT22;10231;47.702;9.826;2022-12-29T05:05:16;6.90;99.90
20141;DHT22;10231;47.702;9.826;2022-12-29T05:07:41;6.90;99.90
20141;DHT22;10231;47.702;9.826;2022-12-29T05:10:07;6.90;99.90
20141;DHT22;10231;47.702;9.826;2022-12-29T05:12:34;6.90;99.90
20141;DHT22;10231;47.702;9.826;2022-12-29T05:15:01;6.80;99.90
20141;DHT22;10231;47.702;9.826;2022-12-29T05:17:28;6.80;99.90
20141;DHT22;10231;47.702;9.826;2022-12-29T05:19:53;6.80;99.90
20141;DHT22;10231;47.702;9.826;2022-12-29T05:22:19;6.80;99.90
20141;DHT22;10231;47.702;9.826;2022-12-29T05:24:44;6.80;99.90
20141;DHT22;10231;47.702;9.826;2022-12-29T05:27:10;6.90;99.90
20141;DHT22;10231;47.702;9.826;2022-12-29T05:29:36;6.90;99.90
20141;DHT22;10231;47.702;9.826;2022-12-29T05:32:01;7.10;99.90
20141;DHT22;10231;47.702;9.826;2022-12-29T05:34:27;7.00;99.90
20141;DHT22;10231;47.702;9.826;2022-12-29T05:36:52;7.00;99.90
20141;DHT22;10231;47.702;9.826;2022-12-29T05:39:18;7.10;99.90
20141;DHT22;10231;47.702;9.826;2022-12-29T05:41:43;7.10;99.60
20141;DHT22;10231;47.702;9.826;2022-12-29T05:44:10;7.10;99.70
20141;DHT22;10231;47.702;9.826;2022-12-29T05:46:36;7.10;99.50
20141;DHT22;10231;47.702;9.826;2022-12-29T05:49:01;7.20;99.80
20141;DHT22;10231;47.702;9.826;2022-12-29T05:51:27;7.20;99.30
20141;DHT22;10231;47.702;9.826;2022-12-29T05:53:52;7.20;99.40
20141;DHT22;10231;47.702;9.826;2022-12-29T05:56:18;7.20;99.20
20141;DHT22;10231;47.702;9.826;2022-12-29T05:58:43;7.20;99.30
20141;DHT22;10231;47.702;9.826;2022-12-29T06:01:09;7.20;99.10
20141;DHT22;10231;47.702;9.826;2022-12-29T06:03:34;7.10;99.40
20141;DHT22;10231;47.702;9.826;2022-12-29T06:06:00;7.10;99.80
20141;DHT22;10231;47.702;9.826;2022-12-29T06:08:26;7.10;99.50
20141;DHT22;10231;47.702;9.826;2022-12-29T06:10:51;7.00;99.80
20141;DHT22;10231;47.702;9.826;2022-12-29T06:13:18;7.00;99.80
20141;DHT22;10231;47.702;9.826;2022-12-29T06:15:43;7.10;99.20
20141;DHT22;10231;47.702;9.826;2022-12-29T06:18:09;7.10;99.60
20141;DHT22;10231;47.702;9.826;2022-12-29T06:20:34;7.00;99.90
20141;DHT22;10231;47.702;9.826;2022-12-29T06:23:00;6.90;99.90
20141;DHT22;10231;47.702;9.826;2022-12-29T06:25:26;6.90;99.90
20141;DHT22;10231;47.702;9.826;2022-12-29T06:27:51;6.90;99.90
20141;DHT22;10231;47.702;9.826;2022-12-29T06:30:17;6.90;99.90
20141;DHT22;10231;47.702;9.826;2022-12-29T06:32:43;7.00;99.90
20141;DHT22;10231;47.702;9.826;2022-12-29T06:35:09;7.00;99.90
20141;DHT22;10231;47.702;9.826;2022-12-29T06:37:35;7.00;99.90
20141;DHT22;10231;47.702;9.826;2022-12-29T06:40:01;7.00;99.50
20141;DHT22;10231;47.702;9.826;2022-12-29T06:42:27;7.00;99.70
20141;DHT22;10231;47.702;9.826;2022-12-29T06:44:52;7.00;99.70
20141;DHT22;10231;47.702;9.826;2022-12-29T06:47:18;7.00;99.90
20141;DHT22;10231;47.702;9.826;2022-12-29T06:49:44;7.00;99.90
20141;DHT22;10231;47.702;9.826;2022-12-29T06:52:10;7.00;99.90
20141;DHT22;10231;47.702;9.826;2022-12-29T06:54:35;7.00;99.90
20141;DHT22;10231;47.702;9.826;2022-12-29T06:57:01;7.00;99.90
20141;DHT22;10231;47.702;9.826;2022-12-29T06:59:26;7.10;99.90
20141;DHT22;10231;47.702;9.826;2022-12-29T07:01:52;7.30;99.20
20141;DHT22;10231;47.702;9.826;2022-12-29T07:04:18;7.30;99.20
20141;DHT22;10231;47.702;9.826;2022-12-29T07:06:43;7.40;98.90
20141;DHT22;10231;47.702;9.826;2022-12-29T07:09:09;7.50;98.70
20141;DHT22;10231;47.702;9.826;2022-12-29T07:11:35;7.60;98.70
20141;DHT22;10231;47.702;9.826;2022-12-29T07:14:01;7.60;98.90
20141;DHT22;10231;47.702;9.826;2022-12-29T07:16:27;7.50;98.90
20141;DHT22;10231;47.702;9.826;2022-12-29T07:18:54;7.50;99.10
20141;DHT22;10231;47.702;9.826;2022-12-29T07:21:20;7.60;98.80
20141;DHT22;10231;47.702;9.826;2022-12-29T07:23:45;7.50;99.30
20141;DHT22;10231;47.702;9.826;2022-12-29T07:26:13;7.50;99.50
20141;DHT22;10231;47.702;9.826;2022-12-29T07:28:39;7.40;99.60
20141;DHT22;10231;47.702;9.826;2022-12-29T07:31:05;7.50;99.30
20141;DHT22;10231;47.702;9.826;2022-12-29T07:33:32;7.50;99.20
20141;DHT22;10231;47.702;9.826;2022-12-29T07:35:58;7.50;99.20
20141;DHT22;10231;47.702;9.826;2022-12-29T07:38:24;7.50;98.90
20141;DHT22;10231;47.702;9.826;2022-12-29T07:40:49;7.50;99.40
20141;DHT22;10231;47.702;9.826;2022-12-29T07:43:15;7.50;99.60
20141;DHT22;10231;47.702;9.826;2022-12-29T07:45:40;7.50;99.60
20141;DHT22;10231;47.702;9.826;2022-12-29T07:48:06;7.60;99.40
20141;DHT22;10231;47.702;9.826;2022-12-29T07:50:35;7.50;99.40
20141;DHT22;10231;47.702;9.826;2022-12-29T07:53:01;7.60;99.40
20141;DHT22;10231;47.702;9.826;2022-12-29T07:55:26;7.60;99.30
20141;DHT22;10231;47.702;9.826;2022-12-29T07:57:55;7.70;99.40
20141;DHT22;10231;47.702;9.826;2022-12-29T08:00:21;7.80;98.70
20141;DHT22;10231;47.702;9.826;2022-12-29T08:02:47;7.80;98.90
20141;DHT22;10231;47.702;9.826;2022-12-29T08:05:13;7.90;99.10
20141;DHT22;10231;47.702;9.826;2022-12-29T08:07:38;7.90;98.60
20141;DHT22;10231;47.702;9.826;2022-12-29T08:10:04;7.90;98.50
20141;DHT22;10231;47.702;9.826;2022-12-29T08:12:30;7.90;98.80
20141;DHT22;10231;47.702;9.826;2022-12-29T08:14:56;7.90;98.90
20141;DHT22;10231;47.702;9.826;2022-12-29T08:17:21;7.90;99.00
20141;DHT22;10231;47.702;9.826;2022-12-29T08:19:47;7.80;99.00
20141;DHT22;10231;47.702;9.826;2022-12-29T08:22:15;7.90;98.90
20141;DHT22;10231;47.702;9.826;2022-12-29T08:24:41;7.90;98.80
20141;DHT22;10231;47.702;9.826;2022-12-29T08:27:06;8.00;98.40
20141;DHT22;10231;47.702;9.826;2022-12-29T08:29:32;8.10;98.20
20141;DHT22;10231;47.702;9.826;2022-12-29T08:31:57;8.20;98.00
20141;DHT22;10231;47.702;9.826;2022-12-29T08:34:23;8.20;98.20
20141;DHT22;10231;47.702;9.826;2022-12-29T08:36:48;8.30;98.30
20141;DHT22;10231;47.702;9.826;2022-12-29T08:39:14;8.20;98.30
20141;DHT22;10231;47.702;9.826;2022-12-29T08:41:39;8.20;98.60
20141;DHT22;10231;47.702;9.826;2022-12-29T08:44:05;8.20;98.80
20141;DHT22;10231;47.702;9.826;2022-12-29T08:46:31;8.20;98.30
20141;DHT22;10231;47.702;9.826;2022-12-29T08:48:56;8.30;98.40
20141;DHT22;10231;47.702;9.826;2022-12-29T08:51:22;8.30;98.30
20141;DHT22;10231;47.702;9.826;2022-12-29T08:53:48;8.20;98.60
20141;DHT22;10231;47.702;9.826;2022-12-29T08:56:13;8.30;98.60
20141;DHT22;10231;47.702;9.826;2022-12-29T08:58:39;8.20;98.50
20141;DHT22;10231;47.702;9.826;2022-12-29T09:01:04;8.20;98.50
20141;DHT22;10231;47.702;9.826;2022-12-29T09:03:30;8.20;98.60
20141;DHT22;10231;47.702;9.826;2022-12-29T09:05:55;8.20;98.80
20141;DHT22;10231;47.702;9.826;2022-12-29T09:08:22;8.20;99.90
20141;DHT22;10231;47.702;9.826;2022-12-29T09:10:48;8.30;99.70
20141;DHT22;10231;47.702;9.826;2022-12-29T09:13:14;8.40;99.30
20141;DHT22;10231;47.702;9.826;2022-12-29T09:15:40;8.50;98.50
20141;DHT22;10231;47.702;9.826;2022-12-29T09:18:06;8.50;98.10
20141;DHT22;10231;47.702;9.826;2022-12-29T09:20:32;8.60;97.70
20141;DHT22;10231;47.702;9.826;2022-12-29T09:22:58;8.60;97.50
20141;DHT22;10231;47.702;9.826;2022-12-29T09:25:24;8.50;97.60
20141;DHT22;10231;47.702;9.826;2022-12-29T09:27:50;8.50;97.60
20141;DHT22;10231;47.702;9.826;2022-12-29T09:30:18;8.60;97.50
20141;DHT22;10231;47.702;9.826;2022-12-29T09:32:44;8.60;97.90
20141;DHT22;10231;47.702;9.826;2022-12-29T09:35:10;8.50;97.80
20141;DHT22;10231;47.702;9.826;2022-12-29T09:37:36;8.50;97.90
20141;DHT22;10231;47.702;9.826;2022-12-29T09:40:02;8.60;97.70
20141;DHT22;10231;47.702;9.826;2022-12-29T09:42:35;8.70;97.10
20141;DHT22;10231;47.702;9.826;2022-12-29T09:45:32;8.80;96.50
20141;DHT22;10231;47.702;9.826;2022-12-29T09:48:04;8.90;96.50
20141;DHT22;10231;47.702;9.826;2022-12-29T09:50:35;8.90;96.30
20141;DHT22;10231;47.702;9.826;2022-12-29T09:55:46;9.10;96.10
20141;DHT22;10231;47.702;9.826;2022-12-29T09:58:35;9.10;96.50
20141;DHT22;10231;47.702;9.826;2022-12-29T10:06:45;9.30;95.30
20141;DHT22;10231;47.702;9.826;2022-12-29T10:09:58;9.40;95.30
20141;DHT22;10231;47.702;9.826;2022-12-29T10:14:57;9.50;94.80
20141;DHT22;10231;47.702;9.826;2022-12-29T10:17:48;9.60;94.90
20141;DHT22;10231;47.702;9.826;2022-12-29T10:20:26;9.60;94.50
20141;DHT22;10231;47.702;9.826;2022-12-29T10:25:39;9.70;95.20
20141;DHT22;10231;47.702;9.826;2022-12-29T10:29:02;9.70;94.80
20141;DHT22;10231;47.702;9.826;2022-12-29T10:31:05;9.80;94.30
20141;DHT22;10231;47.702;9.826;2022-12-29T10:33:40;9.80;94.50
20141;DHT22;10231;47.702;9.826;2022-12-29T10:36:38;9.90;94.30
20141;DHT22;10231;47.702;9.826;2022-12-29T10:39:33;9.90;95.00
20141;DHT22;10231;47.702;9.826;2022-12-29T10:42:54;10.00;94.10
20141;DHT22;10231;47.702;9.826;2022-12-29T10:45:02;10.00;94.00
20141;DHT22;10231;47.702;9.826;2022-12-29T10:47:35;10.10;94.40
20141;DHT22;10231;47.702;9.826;2022-12-29T10:50:04;10.10;94.60
20141;DHT22;10231;47.702;9.826;2022-12-29T10:52:31;10.20;94.60
20141;DHT22;10231;47.702;9.826;2022-12-29T10:55:08;10.30;94.70
20141;DHT22;10231;47.702;9.826;2022-12-29T10:57:40;10.40;94.70
20141;DHT22;10231;47.702;9.826;2022-12-29T11:00:17;10.50;93.70
20141;DHT22;10231;47.702;9.826;2022-12-29T11:05:49;10.60;93.70
20141;DHT22;10231;47.702;9.826;2022-12-29T11:08:21;10.60;93.60
20141;DHT22;10231;47.702;9.826;2022-12-29T11:11:01;10.60;93.50
20141;DHT22;10231;47.702;9.826;2022-12-29T11:13:30;10.60;93.20
20141;DHT22;10231;47.702;9.826;2022-12-29T11:15:56;10.60;93.50
20141;DHT22;10231;47.702;9.826;2022-12-29T11:18:40;10.60;94.20
20141;DHT22;10231;47.702;9.826;2022-12-29T11:21:35;10.60;94.40
20141;DHT22;10231;47.702;9.826;2022-12-29T11:24:22;10.60;94.00
20141;DHT22;10231;47.702;9.826;2022-12-29T11:26:50;10.60;93.70
20141;DHT22;10231;47.702;9.826;2022-12-29T11:29:24;10.60;93.80
20141;DHT22;10231;47.702;9.826;2022-12-29T11:31:52;10.60;93.90
20141;DHT22;10231;47.702;9.826;2022-12-29T11:34:25;10.60;94.10
20141;DHT22;10231;47.702;9.826;2022-12-29T11:36:54;10.60;94.40
20141;DHT22;10231;47.702;9.826;2022-12-29T11:40:15;10.60;94.60
20141;DHT22;10231;47.702;9.826;2022-12-29T11:42:21;10.60;95.00
20141;DHT22;10231;47.702;9.826;2022-12-29T11:44:48;10.60;94.80
20141;DHT22;10231;47.702;9.826;2022-12-29T11:47:29;10.70;94.80
20141;DHT22;10231;47.702;9.826;2022-12-29T11:50:02;10.70;95.20
20141;DHT22;10231;47.702;9.826;2022-12-29T11:52:32;10.60;95.10
20141;DHT22;10231;47.702;9.826;2022-12-29T11:55:03;10.70;94.80
20141;DHT22;10231;47.702;9.826;2022-12-29T11:57:32;10.60;95.10
20141;DHT22;10231;47.702;9.826;2022-12-29T12:00:02;10.70;94.60
20141;DHT22;10231;47.702;9.826;2022-12-29T12:05:17;10.70;94.50
20141;DHT22;10231;47.702;9.826;2022-12-29T12:07:46;10.80;94.40
20141;DHT22;10231;47.702;9.826;2022-12-29T12:10:27;10.80;94.20
20141;DHT22;10231;47.702;9.826;2022-12-29T12:15:46;10.90;94.00
20141;DHT22;10231;47.702;9.826;2022-12-29T12:18:28;10.80;94.10
20141;DHT22;10231;47.702;9.826;2022-12-29T12:21:27;10.80;94.50
20141;DHT22;10231;47.702;9.826;2022-12-29T12:24:07;10.80;94.60
20141;DHT22;10231;47.702;9.826;2022-12-29T12:26:53;10.80;94.60
20141;DHT22;10231;47.702;9.826;2022-12-29T12:29:26;10.80;95.00
20141;DHT22;10231;47.702;9.826;2022-12-29T12:32:17;10.90;94.30
20141;DHT22;10231;47.702;9.826;2022-12-29T12:34:45;11.00;94.00
20141;DHT22;10231;47.702;9.826;2022-12-29T12:49:30;11.00;93.40
20141;DHT22;10231;47.702;9.826;2022-12-29T12:57:08;10.80;94.40
20141;DHT22;10231;47.702;9.826;2022-12-29T12:59:57;10.70;94.80
20141;DHT22;10231;47.702;9.826;2022-12-29T13:02:37;10.70;95.20
20141;DHT22;10231;47.702;9.826;2022-12-29T13:10:55;10.50;96.60
20141;DHT22;10231;47.702;9.826;2022-12-29T13:16:34;10.50;97.70
20141;DHT22;10231;47.702;9.826;2022-12-29T13:19:14;10.60;98.40
20141;DHT22;10231;47.702;9.826;2022-12-29T13:27:21;10.50;99.20
20141;DHT22;10231;47.702;9.826;2022-12-29T13:30:00;10.50;99.50
20141;DHT22;10231;47.702;9.826;2022-12-29T13:32:46;10.40;99.80
20141;DHT22;10231;47.702;9.826;2022-12-29T13:38:00;10.40;99.90
20141;DHT22;10231;47.702;9.826;2022-12-29T13:40:31;10.30;99.90
20141;DHT22;10231;47.702;9.826;2022-12-29T13:43:00;10.20;99.90
20141;DHT22;10231;47.702;9.826;2022-12-29T13:45:30;10.20;99.90
20141;DHT22;10231;47.702;9.826;2022-12-29T13:47:57;10.20;99.90
20141;DHT22;10231;47.702;9.826;2022-12-29T13:50:26;10.20;99.90
20141;DHT22;10231;47.702;9.826;2022-12-29T13:53:21;10.10;99.90
20141;DHT22;10231;47.702;9.826;2022-12-29T13:56:10;10.10;99.90
20141;DHT22;10231;47.702;9.826;2022-12-29T13:58:50;10.10;99.90
20141;DHT22;10231;47.702;9.826;2022-12-29T14:01:28;10.10;99.90
20141;DHT22;10231;47.702;9.826;2022-12-29T14:03:57;10.00;99.90
20141;DHT22;10231;47.702;9.826;2022-12-29T14:06:29;9.90;99.90
20141;DHT22;10231;47.702;9.826;2022-12-29T14:11:48;9.90;99.90
20141;DHT22;10231;47.702;9.826;2022-12-29T14:14:21;9.80;99.90
20141;DHT22;10231;47.702;9.826;2022-12-29T14:16:48;9.80;99.90
20141;DHT22;10231;47.702;9.826;2022-12-29T14:21:51;9.70;99.90
20141;DHT22;10231;47.702;9.826;2022-12-29T14:34:53;9.50;99.90
20141;DHT22;10231;47.702;9.826;2022-12-29T14:37:29;9.50;99.90
20141;DHT22;10231;47.702;9.826;2022-12-29T14:40:17;9.50;99.90
20141;DHT22;10231;47.702;9.826;2022-12-29T14:42:44;9.50;99.90
20141;DHT22;10231;47.702;9.826;2022-12-29T14:47:41;9.40;99.90
20141;DHT22;10231;47.702;9.826;2022-12-29T14:50:13;9.40;99.90
20141;DHT22;10231;47.702;9.826;2022-12-29T14:53:01;9.40;99.90
20141;DHT22;10231;47.702;9.826;2022-12-29T14:55:40;9.30;99.90
20141;DHT22;10231;47.702;9.826;2022-12-29T14:58:35;9.40;99.90
20141;DHT22;10231;47.702;9.826;2022-12-29T15:00:58;9.40;99.90
20141;DHT22;10231;47.702;9.826;2022-12-29T15:03:35;9.40;99.90
20141;DHT22;10231;47.702;9.826;2022-12-29T15:06:08;9.40;99.90
20141;DHT22;10231;47.702;9.826;2022-12-29T15:08:51;9.40;99.90
20141;DHT22;10231;47.702;9.826;2022-12-29T15:11:41;9.40;99.90
20141;DHT22;10231;47.702;9.826;2022-12-29T15:14:30;9.40;99.90
20141;DHT22;10231;47.702;9.826;2022-12-29T15:16:57;9.40;99.90
20141;DHT22;10231;47.702;9.826;2022-12-29T15:19:25;9.40;99.90
20141;DHT22;10231;47.702;9.826;2022-12-29T15:21:52;9.30;99.90
20141;DHT22;10231;47.702;9.826;2022-12-29T15:24:19;9.30;99.90
20141;DHT22;10231;47.702;9.826;2022-12-29T15:26:50;9.30;99.90
20141;DHT22;10231;47.702;9.826;2022-12-29T15:29:39;9.30;99.90
20141;DHT22;10231;47.702;9.826;2022-12-29T15:32:19;9.30;99.90
20141;DHT22;10231;47.702;9.826;2022-12-29T15:34:56;9.20;99.90
20141;DHT22;10231;47.702;9.826;2022-12-29T15:37:28;9.10;99.90
20141;DHT22;10231;47.702;9.826;2022-12-29T15:39:57;9.10;99.90
20141;DHT22;10231;47.702;9.826;2022-12-29T15:42:30;9.00;99.90
20141;DHT22;10231;47.702;9.826;2022-12-29T15:44:57;9.10;99.90
20141;DHT22;10231;47.702;9.826;2022-12-29T15:47:26;9.00;99.90
20141;DHT22;10231;47.702;9.826;2022-12-29T15:50:02;9.00;99.90
20141;DHT22;10231;47.702;9.826;2022-12-29T15:52:29;9.00;99.90
20141;DHT22;10231;47.702;9.826;2022-12-29T15:54:58;8.90;99.90
20141;DHT22;10231;47.702;9.826;2022-12-29T15:57:27;8.90;99.90
20141;DHT22;10231;47.702;9.826;2022-12-29T15:59:53;8.90;99.90
20141;DHT22;10231;47.702;9.826;2022-12-29T16:02:21;8.80;99.90
20141;DHT22;10231;47.702;9.826;2022-12-29T16:04:48;8.80;99.90
20141;DHT22;10231;47.702;9.826;2022-12-29T16:07:30;8.80;99.90
20141;DHT22;10231;47.702;9.826;2022-12-29T16:09:58;8.70;99.90
20141;DHT22;10231;47.702;9.826;2022-12-29T16:12:33;8.70;99.90
20141;DHT22;10231;47.702;9.826;2022-12-29T16:15:07;8.70;99.90
20141;DHT22;10231;47.702;9.826;2022-12-29T16:17:46;8.70;99.90
20141;DHT22;10231;47.702;9.826;2022-12-29T16:20:21;8.60;99.90
20141;DHT22;10231;47.702;9.826;2022-12-29T16:22:58;8.60;99.90
20141;DHT22;10231;47.702;9.826;2022-12-29T16:25:34;8.60;99.90
20141;DHT22;10231;47.702;9.826;2022-12-29T16:28:03;8.60;99.90
20141;DHT22;10231;47.702;9.826;2022-12-29T16:30:39;8.60;99.90
20141;DHT22;10231;47.702;9.826;2022-12-29T16:33:05;8.60;99.90
20141;DHT22;10231;47.702;9.826;2022-12-29T16:38:16;8.60;99.90
20141;DHT22;10231;47.702;9.826;2022-12-29T16:40:59;8.60;99.90
20141;DHT22;10231;47.702;9.826;2022-12-29T16:43:33;8.60;99.90
20141;DHT22;10231;47.702;9.826;2022-12-29T16:48:34;8.80;99.90
20141;DHT22;10231;47.702;9.826;2022-12-29T16:53:38;8.90;99.90
20141;DHT22;10231;47.702;9.826;2022-12-29T16:56:25;9.00;99.90
20141;DHT22;10231;47.702;9.826;2022-12-29T16:59:05;9.10;99.90
20141;DHT22;10231;47.702;9.826;2022-12-29T17:01:35;9.20;99.90
20141;DHT22;10231;47.702;9.826;2022-12-29T17:04:06;9.40;99.90
20141;DHT22;10231;47.702;9.826;2022-12-29T17:06:32;9.60;99.90
20141;DHT22;10231;47.702;9.826;2022-12-29T17:08:58;9.70;99.90
20141;DHT22;10231;47.702;9.826;2022-12-29T17:11:29;9.80;99.90
20141;DHT22;10231;47.702;9.826;2022-12-29T17:16:54;9.90;99.90
20141;DHT22;10231;47.702;9.826;2022-12-29T17:19:35;9.80;99.90
20141;DHT22;10231;47.702;9.826;2022-12-29T17:22:02;9.80;99.90
20141;DHT22;10231;47.702;9.826;2022-12-29T17:24:28;9.70;99.90
20141;DHT22;10231;47.702;9.826;2022-12-29T17:26:56;9.70;99.90
20141;DHT22;10231;47.702;9.826;2022-12-29T17:29:31;9.70;99.90
20141;DHT22;10231;47.702;9.826;2022-12-29T17:31:58;9.70;99.90
20141;DHT22;10231;47.702;9.826;2022-12-29T17:34:24;9.70;99.90
20141;DHT22;10231;47.702;9.826;2022-12-29T17:36:50;9.60;99.90
20141;DHT22;10231;47.702;9.826;2022-12-29T17:39:15;9.60;99.90
20141;DHT22;10231;47.702;9.826;2022-12-29T17:41:41;9.50;99.90
20141;DHT22;10231;47.702;9.826;2022-12-29T17:44:08;9.40;99.90
20141;DHT22;10231;47.702;9.826;2022-12-29T17:46:38;9.30;99.90
20141;DHT22;10231;47.702;9.826;2022-12-29T17:49:09;9.30;99.90
20141;DHT22;10231;47.702;9.826;2022-12-29T17:51:34;9.30;99.90
20141;DHT22;10231;47.702;9.826;2022-12-29T17:54:00;9.30;99.90
20141;DHT22;10231;47.702;9.826;2022-12-29T17:56:26;9.20;99.90
20141;DHT22;10231;47.702;9.826;2022-12-29T17:58:51;9.10;99.90
20141;DHT22;10231;47.702;9.826;2022-12-29T18:01:17;9.10;99.90
20141;DHT22;10231;47.702;9.826;2022-12-29T18:03:46;9.00;99.90
20141;DHT22;10231;47.702;9.826;2022-12-29T18:06:11;9.00;99.90
20141;DHT22;10231;47.702;9.826;2022-12-29T18:08:39;8.90;99.90
20141;DHT22;10231;47.702;9.826;2022-12-29T18:11:24;8.90;99.90